createdAt,value
2023-05-19T00:00:40.616Z,4.15
2023-05-19T00:03:09.068Z,4.05
2023-05-19T00:05:36.873Z,4.00
2023-05-19T00:08:03.413Z,4.05
2023-05-19T00:10:31.636Z,4.03
2023-05-19T00:12:58.864Z,4.28
2023-05-19T00:15:25.861Z,4.55
2023-05-19T00:17:52.511Z,4.10
2023-05-19T00:20:19.064Z,4.07
2023-05-19T00:22:45.581Z,4.07
2023-05-19T00:25:12.079Z,4.13
2023-05-19T00:27:38.698Z,4.35
2023-05-19T00:30:05.765Z,3.85
2023-05-19T00:32:32.373Z,3.83
2023-05-19T00:34:59.326Z,3.75
2023-05-19T00:37:26.367Z,3.83
2023-05-19T00:39:53.400Z,4.10
2023-05-19T00:42:20.567Z,4.10
2023-05-19T00:44:47.048Z,4.25
2023-05-19T00:47:13.592Z,4.07
2023-05-19T00:49:40.423Z,3.97
2023-05-19T00:52:06.966Z,4.28
2023-05-19T00:54:36.616Z,4.43
2023-05-19T00:57:04.241Z,4.15
2023-05-19T00:59:30.797Z,4.07
2023-05-19T01:01:57.326Z,3.97
2023-05-19T01:04:25.535Z,4.13
2023-05-19T01:06:54.975Z,3.85
2023-05-19T01:09:24.568Z,4.22
2023-05-19T01:11:51.099Z,4.18
2023-05-19T01:14:18.131Z,4.00
2023-05-19T01:16:50.098Z,4.28
2023-05-19T01:19:50.732Z,4.13
2023-05-19T01:22:57.293Z,4.35
2023-05-19T01:25:32.288Z,3.58
2023-05-19T01:28:20.024Z,4.10
2023-05-19T01:30:48.741Z,4.03
2023-05-19T01:33:15.342Z,4.00
2023-05-19T01:35:42.805Z,4.07
2023-05-19T01:38:10.324Z,4.10
2023-05-19T01:40:37.836Z,4.60
2023-05-19T01:43:04.377Z,4.57
2023-05-19T01:45:32.373Z,4.22
2023-05-19T01:48:00.613Z,4.22
2023-05-19T01:50:27.351Z,3.92
2023-05-19T01:52:53.915Z,4.43
2023-05-19T01:55:21.235Z,4.00
2023-05-19T01:57:59.700Z,3.88
2023-05-19T02:00:32.074Z,3.75
2023-05-19T02:03:09.991Z,4.07
2023-05-19T02:05:41.460Z,3.80
2023-05-19T02:08:07.838Z,4.20
2023-05-19T02:10:34.528Z,4.22
2023-05-19T02:13:01.874Z,4.28
2023-05-19T02:15:30.420Z,3.78
2023-05-19T02:17:57.006Z,3.92
2023-05-19T02:20:23.535Z,3.60
2023-05-19T02:22:50.146Z,4.15
2023-05-19T02:25:16.669Z,4.05
2023-05-19T02:27:43.247Z,3.88
2023-05-19T02:30:10.225Z,4.10
2023-05-19T02:32:36.849Z,3.90
2023-05-19T02:35:04.021Z,3.97
2023-05-19T02:37:31.068Z,4.15
2023-05-19T02:39:57.617Z,3.90
2023-05-19T02:42:24.135Z,4.65
2023-05-19T02:44:50.726Z,4.20
2023-05-19T02:47:17.242Z,4.40
2023-05-19T02:49:44.181Z,4.50
2023-05-19T02:52:12.064Z,4.57
2023-05-19T02:54:38.671Z,4.40
2023-05-19T02:57:05.409Z,4.40
2023-05-19T02:59:32.158Z,3.95
2023-05-19T03:02:02.134Z,4.10
2023-05-19T03:04:29.643Z,4.78
2023-05-19T03:06:57.261Z,4.75
2023-05-19T03:09:23.811Z,4.43
2023-05-19T03:11:50.310Z,4.07
2023-05-19T03:14:18.539Z,4.30
2023-05-19T03:16:45.211Z,4.28
2023-05-19T03:19:12.066Z,3.95
2023-05-19T03:21:38.600Z,4.00
2023-05-19T03:24:05.321Z,4.35
2023-05-19T03:26:32.494Z,4.10
2023-05-19T03:28:59.054Z,4.57
2023-05-19T03:31:26.704Z,4.22
2023-05-19T03:33:53.274Z,4.10
2023-05-19T03:36:19.825Z,4.35
2023-05-19T03:38:46.362Z,4.72
2023-05-19T03:41:12.854Z,4.15
2023-05-19T03:43:39.405Z,4.10
2023-05-19T03:46:05.977Z,4.20
2023-05-19T03:48:32.524Z,4.40
2023-05-19T03:50:59.204Z,4.40
2023-05-19T03:53:26.248Z,4.63
2023-05-19T03:55:52.750Z,4.45
2023-05-19T03:58:19.274Z,4.55
2023-05-19T04:00:46.009Z,4.47
2023-05-19T04:03:12.666Z,4.70
2023-05-19T04:05:39.288Z,4.93
2023-05-19T04:08:06.100Z,4.95
2023-05-19T04:10:32.715Z,4.82
2023-05-19T04:12:59.403Z,4.78
2023-05-19T04:15:25.994Z,4.43
2023-05-19T04:17:52.588Z,4.68
2023-05-19T04:20:19.165Z,4.75
2023-05-19T04:22:45.657Z,4.60
2023-05-19T04:25:12.198Z,4.93
2023-05-19T04:27:41.471Z,4.40
2023-05-19T04:30:08.443Z,4.32
2023-05-19T04:32:37.325Z,4.85
2023-05-19T04:35:04.708Z,4.80
2023-05-19T04:37:31.511Z,4.18
2023-05-19T04:39:58.034Z,4.55
2023-05-19T04:42:26.068Z,4.70
2023-05-19T04:44:52.640Z,4.65
2023-05-19T04:47:21.493Z,4.68
2023-05-19T04:49:48.258Z,4.80
2023-05-19T04:52:15.880Z,4.47
2023-05-19T04:54:42.390Z,4.70
2023-05-19T04:57:10.429Z,5.60
2023-05-19T04:59:36.964Z,5.00
2023-05-19T05:02:04.344Z,4.63
2023-05-19T05:04:30.935Z,4.95
2023-05-19T05:06:57.447Z,5.40
2023-05-19T05:09:23.954Z,5.55
2023-05-19T05:11:51.531Z,5.50
2023-05-19T05:14:18.257Z,4.97
2023-05-19T05:16:45.108Z,5.50
2023-05-19T05:19:12.242Z,5.43
2023-05-19T05:21:39.120Z,5.53
2023-05-19T05:24:06.049Z,5.32
2023-05-19T05:26:33.667Z,5.60
2023-05-19T05:29:00.162Z,5.97
2023-05-19T05:31:26.747Z,5.65
2023-05-19T05:33:53.283Z,6.00
2023-05-19T05:36:19.822Z,6.00
2023-05-19T05:38:46.355Z,6.35
2023-05-19T05:41:12.851Z,6.40
2023-05-19T05:43:39.371Z,6.57
2023-05-19T05:46:06.064Z,6.07
2023-05-19T05:48:33.178Z,5.65
2023-05-19T05:50:59.761Z,5.88
2023-05-19T05:53:27.033Z,6.68
2023-05-19T05:55:53.851Z,5.85
2023-05-19T05:58:21.251Z,6.30
2023-05-19T06:00:51.505Z,5.63
2023-05-19T06:03:18.151Z,5.88
2023-05-19T06:05:44.812Z,5.68
2023-05-19T06:08:11.372Z,5.75
2023-05-19T06:10:41.602Z,5.30
2023-05-19T06:13:08.196Z,5.90
2023-05-19T06:15:36.199Z,5.75
2023-05-19T06:18:02.822Z,5.90
2023-05-19T06:20:29.443Z,5.20
2023-05-19T06:22:56.641Z,5.68
2023-05-19T06:25:24.640Z,5.78
2023-05-19T06:27:51.481Z,5.88
2023-05-19T06:30:17.969Z,5.43
2023-05-19T06:32:44.573Z,5.75
2023-05-19T06:35:11.170Z,4.72
2023-05-19T06:37:37.674Z,5.35
2023-05-19T06:40:05.661Z,5.43
2023-05-19T06:42:32.182Z,5.30
2023-05-19T06:44:58.722Z,5.15
2023-05-19T06:47:25.246Z,5.07
2023-05-19T06:49:55.362Z,5.15
2023-05-19T06:52:22.412Z,5.30
2023-05-19T06:54:49.466Z,5.10
2023-05-19T06:57:15.990Z,4.95
2023-05-19T06:59:43.493Z,4.95
2023-05-19T07:02:10.056Z,5.25
2023-05-19T07:04:36.706Z,5.57
2023-05-19T07:07:03.276Z,4.97
2023-05-19T07:09:29.762Z,5.05
2023-05-19T07:11:56.534Z,5.10
2023-05-19T07:14:23.204Z,4.90
2023-05-19T07:16:49.763Z,4.60
2023-05-19T07:19:16.392Z,4.60
2023-05-19T07:21:43.445Z,5.30
2023-05-19T07:24:10.022Z,4.28
2023-05-19T07:26:36.515Z,4.93
2023-05-19T07:29:03.025Z,4.95
2023-05-19T07:31:29.578Z,4.85
2023-05-19T07:33:56.989Z,4.80
2023-05-19T07:36:23.501Z,4.68
2023-05-19T07:38:50.074Z,4.60
2023-05-19T07:41:16.614Z,4.32
2023-05-19T07:43:43.152Z,4.68
2023-05-19T07:46:09.835Z,4.20
2023-05-19T07:48:36.795Z,3.95
2023-05-19T07:51:03.441Z,4.20
2023-05-19T07:53:30.048Z,4.43
2023-05-19T07:55:58.519Z,4.10
2023-05-19T07:58:25.371Z,5.05
2023-05-19T08:00:51.918Z,4.40
2023-05-19T08:03:18.600Z,4.20
2023-05-19T08:05:45.922Z,4.13
2023-05-19T08:08:12.821Z,4.68
2023-05-19T08:10:39.479Z,4.90
2023-05-19T08:13:06.077Z,4.45
2023-05-19T08:15:32.951Z,4.40
2023-05-19T08:17:59.552Z,4.10
2023-05-19T08:20:26.195Z,4.78
2023-05-19T08:22:52.822Z,4.70
2023-05-19T08:25:19.869Z,4.20
2023-05-19T08:27:46.432Z,4.15
2023-05-19T08:30:13.121Z,4.38
2023-05-19T08:32:39.721Z,4.00
2023-05-19T08:35:06.588Z,3.83
2023-05-19T08:37:34.193Z,4.65
2023-05-19T08:40:00.882Z,4.70
2023-05-19T08:42:27.748Z,4.28
2023-05-19T08:44:54.314Z,4.40
2023-05-19T08:47:20.891Z,3.90
2023-05-19T08:49:47.597Z,4.07
2023-05-19T08:52:52.562Z,3.90
2023-05-19T08:55:33.873Z,4.00
2023-05-19T08:58:04.091Z,4.00
2023-05-19T09:00:31.048Z,4.07
2023-05-19T09:03:10.816Z,4.13
2023-05-19T09:05:44.528Z,4.00
2023-05-19T09:08:11.119Z,4.10
2023-05-19T09:10:37.635Z,4.10
2023-05-19T09:13:04.191Z,4.28
2023-05-19T09:15:31.810Z,4.40
2023-05-19T09:18:12.812Z,4.53
2023-05-19T09:20:43.441Z,3.90
2023-05-19T09:23:17.021Z,3.70
2023-05-19T09:25:47.122Z,4.00
2023-05-19T09:28:13.622Z,3.80
2023-05-19T09:30:40.169Z,4.10
2023-05-19T09:33:09.886Z,4.03
2023-05-19T09:35:37.021Z,3.60
2023-05-19T09:38:03.588Z,3.80
2023-05-19T09:40:30.126Z,4.40
2023-05-19T09:42:56.639Z,4.03
2023-05-19T09:45:23.206Z,4.53
2023-05-19T09:47:49.789Z,4.75
2023-05-19T09:50:16.958Z,4.50
2023-05-19T09:52:43.900Z,3.63
2023-05-19T09:55:12.669Z,4.28
2023-05-19T09:57:40.118Z,3.97
2023-05-19T10:00:20.792Z,4.28
2023-05-19T10:02:47.762Z,4.10
2023-05-19T10:05:17.352Z,4.32
2023-05-19T10:07:51.372Z,4.20
2023-05-19T10:10:19.982Z,3.63
2023-05-19T10:12:46.873Z,4.00
2023-05-19T10:15:14.408Z,4.32
2023-05-19T10:17:43.133Z,4.00
2023-05-19T10:20:14.010Z,3.65
2023-05-19T10:22:41.367Z,4.25
2023-05-19T10:25:08.489Z,4.25
2023-05-19T10:27:40.067Z,3.97
2023-05-19T10:30:13.742Z,3.97
2023-05-19T10:32:42.096Z,3.80
2023-05-19T10:35:27.412Z,4.07
2023-05-19T10:38:11.745Z,4.30
2023-05-19T10:43:19.488Z,3.72
2023-05-19T10:45:51.609Z,3.60
2023-05-19T10:48:19.847Z,4.22
2023-05-19T10:50:46.819Z,4.38
2023-05-19T10:53:22.472Z,4.03
2023-05-19T10:56:03.907Z,4.32
2023-05-19T10:58:45.644Z,3.78
2023-05-19T11:01:16.892Z,4.30
2023-05-19T11:03:47.322Z,4.00
2023-05-19T11:06:32.377Z,4.30
2023-05-19T11:09:19.434Z,4.65
2023-05-19T11:11:55.397Z,4.00
2023-05-19T11:14:23.323Z,4.35
2023-05-19T11:16:51.307Z,4.32
2023-05-19T11:19:34.358Z,4.20
2023-05-19T11:22:22.926Z,4.47
2023-05-19T11:24:55.386Z,4.50
2023-05-19T11:27:32.693Z,3.88
2023-05-19T11:30:02.284Z,4.07
2023-05-19T11:32:30.054Z,4.43
2023-05-19T11:34:57.027Z,4.25
2023-05-19T11:37:23.690Z,4.13
2023-05-19T11:39:52.081Z,4.43
2023-05-19T11:42:18.659Z,4.35
2023-05-19T11:44:48.070Z,4.82
2023-05-19T11:47:16.083Z,4.55
2023-05-19T11:49:47.815Z,4.45
2023-05-19T11:52:14.756Z,3.97
2023-05-19T11:54:44.133Z,3.78
2023-05-19T11:57:10.996Z,4.20
2023-05-19T11:59:39.069Z,4.35
2023-05-19T12:02:19.351Z,4.40
2023-05-19T12:04:46.740Z,3.67
2023-05-19T12:07:13.825Z,4.18
2023-05-19T12:09:40.360Z,4.20
2023-05-19T12:12:07.126Z,3.85
2023-05-19T12:14:34.444Z,4.05
2023-05-19T12:17:10.421Z,4.00
2023-05-19T12:19:37.084Z,4.30
2023-05-19T12:22:04.134Z,4.32
2023-05-19T12:24:30.729Z,4.15
2023-05-19T12:27:07.495Z,4.70
2023-05-19T12:29:34.550Z,4.30
2023-05-19T12:32:01.407Z,4.15
2023-05-19T12:34:27.986Z,4.30
2023-05-19T12:36:54.539Z,4.22
2023-05-19T12:39:21.553Z,4.72
2023-05-19T12:41:48.104Z,4.13
2023-05-19T12:44:15.545Z,4.03
2023-05-19T12:46:42.534Z,5.05
2023-05-19T12:49:09.042Z,4.20
2023-05-19T12:51:36.701Z,4.00
2023-05-19T12:54:04.607Z,3.90
2023-05-19T12:56:31.206Z,4.20
2023-05-19T12:58:57.752Z,4.28
2023-05-19T13:01:24.446Z,4.07
2023-05-19T13:03:52.271Z,3.97
2023-05-19T13:06:18.946Z,4.07
2023-05-19T13:08:47.222Z,3.97
2023-05-19T13:11:13.729Z,4.13
2023-05-19T13:13:40.232Z,4.32
2023-05-19T13:16:06.994Z,4.35
2023-05-19T13:18:35.288Z,4.70
2023-05-19T13:21:01.792Z,5.13
2023-05-19T13:23:28.320Z,4.70
2023-05-19T13:25:54.837Z,4.50
2023-05-19T13:28:21.500Z,4.63
2023-05-19T13:30:49.519Z,4.43
2023-05-19T13:33:16.217Z,4.15
2023-05-19T13:35:42.827Z,4.15
2023-05-19T13:38:12.191Z,4.20
2023-05-19T13:40:39.519Z,3.92
2023-05-19T13:43:06.242Z,3.70
2023-05-19T13:45:32.817Z,3.80
2023-05-19T13:47:59.569Z,3.72
2023-05-19T13:50:26.430Z,3.90
2023-05-19T13:52:53.691Z,3.88
2023-05-19T13:55:20.448Z,4.13
2023-05-19T13:57:46.938Z,5.03
2023-05-19T14:00:13.844Z,4.60
2023-05-19T14:02:40.592Z,4.40
2023-05-19T14:05:08.003Z,4.50
2023-05-19T14:07:35.068Z,4.53
2023-05-19T14:10:02.593Z,4.50
2023-05-19T14:12:38.111Z,5.10
2023-05-19T14:15:11.477Z,5.13
2023-05-19T14:17:38.219Z,4.88
2023-05-19T14:20:05.470Z,4.53
2023-05-19T14:22:32.275Z,4.90
2023-05-19T14:25:00.316Z,4.88
2023-05-19T14:27:26.875Z,5.47
2023-05-19T14:29:53.421Z,5.55
2023-05-19T14:32:20.607Z,5.40
2023-05-19T14:34:47.387Z,5.28
2023-05-19T14:37:13.959Z,5.78
2023-05-19T14:39:40.457Z,5.43
2023-05-19T14:42:06.966Z,5.68
2023-05-19T14:44:33.493Z,5.38
2023-05-19T14:47:01.536Z,5.60
2023-05-19T14:49:28.066Z,5.68
2023-05-19T14:51:54.599Z,5.85
2023-05-19T14:54:21.120Z,6.20
2023-05-19T14:56:47.636Z,6.00
2023-05-19T14:59:14.244Z,5.93
2023-05-19T15:01:40.864Z,6.85
2023-05-19T15:04:07.534Z,6.68
2023-05-19T15:06:34.065Z,6.57
2023-05-19T15:09:00.583Z,6.88
2023-05-19T15:11:27.069Z,6.90
2023-05-19T15:13:53.593Z,7.47
2023-05-19T15:16:20.115Z,7.03
2023-05-19T15:18:46.653Z,7.13
2023-05-19T15:21:13.313Z,6.93
2023-05-19T15:23:39.820Z,6.40
2023-05-19T15:26:06.324Z,6.63
2023-05-19T15:28:33.558Z,6.78
2023-05-19T15:31:00.141Z,6.32
2023-05-19T15:33:26.736Z,6.38
2023-05-19T15:35:53.335Z,6.47
2023-05-19T15:38:20.178Z,6.75
2023-05-19T15:40:46.840Z,6.22
2023-05-19T15:43:13.530Z,6.43
2023-05-19T15:45:40.042Z,6.32
2023-05-19T15:48:06.816Z,6.03
2023-05-19T15:50:33.559Z,6.10
2023-05-19T15:53:00.380Z,6.78
2023-05-19T15:55:26.871Z,6.43
2023-05-19T15:57:53.405Z,7.03
2023-05-19T16:00:20.486Z,6.65
2023-05-19T16:02:47.208Z,6.85
2023-05-19T16:05:14.104Z,6.15
2023-05-19T16:07:41.998Z,7.13
2023-05-19T16:10:08.903Z,7.30
2023-05-19T16:12:36.520Z,7.28
2023-05-19T16:15:03.354Z,7.68
2023-05-19T16:17:29.951Z,7.30
2023-05-19T16:19:56.587Z,7.30
2023-05-19T16:22:24.819Z,7.07
2023-05-19T16:24:52.074Z,6.82
2023-05-19T16:27:18.787Z,7.10
2023-05-19T16:29:45.311Z,7.28
2023-05-19T16:32:12.161Z,7.53
2023-05-19T16:34:38.829Z,6.88
2023-05-19T16:37:05.417Z,6.82
2023-05-19T16:39:32.411Z,6.93
2023-05-19T16:41:58.920Z,7.10
2023-05-19T16:44:25.668Z,7.43
2023-05-19T16:46:52.262Z,7.03
2023-05-19T16:49:18.782Z,7.20
2023-05-19T16:51:46.819Z,6.93
2023-05-19T16:54:14.748Z,7.05
2023-05-19T16:56:41.295Z,7.30
2023-05-19T16:59:09.022Z,6.53
2023-05-19T17:01:35.675Z,6.53
2023-05-19T17:04:02.300Z,6.93
2023-05-19T17:06:28.870Z,6.70
2023-05-19T17:08:55.415Z,6.43
2023-05-19T17:11:22.001Z,6.30
2023-05-19T17:13:48.667Z,6.70
2023-05-19T17:16:15.413Z,6.35
2023-05-19T17:18:42.023Z,6.03
2023-05-19T17:21:08.609Z,5.85
2023-05-19T17:23:35.134Z,5.70
2023-05-19T17:26:01.941Z,6.15
2023-05-19T17:28:28.615Z,6.18
2023-05-19T17:30:55.124Z,6.20
2023-05-19T17:33:21.641Z,6.30
2023-05-19T17:35:48.210Z,6.72
2023-05-19T17:38:14.707Z,6.30
2023-05-19T17:40:42.207Z,5.60
2023-05-19T17:43:08.836Z,6.65
2023-05-19T17:45:35.582Z,6.70
2023-05-19T17:48:02.377Z,5.95
2023-05-19T17:50:28.949Z,6.00
2023-05-19T17:52:56.121Z,6.22
2023-05-19T17:55:24.754Z,5.78
2023-05-19T17:57:51.443Z,6.32
2023-05-19T18:00:18.503Z,5.95
2023-05-19T18:02:45.382Z,6.10
2023-05-19T18:05:12.676Z,5.57
2023-05-19T18:07:40.010Z,5.50
2023-05-19T18:10:07.230Z,5.68
2023-05-19T18:12:33.997Z,5.60
2023-05-19T18:15:00.509Z,6.30
2023-05-19T18:17:27.155Z,6.25
2023-05-19T18:19:54.536Z,5.53
2023-05-19T18:22:21.188Z,6.00
2023-05-19T18:24:47.843Z,5.60
2023-05-19T18:27:14.408Z,6.13
2023-05-19T18:29:40.988Z,6.40
2023-05-19T18:32:07.912Z,6.30
2023-05-19T18:34:34.463Z,5.50
2023-05-19T18:37:00.951Z,6.22
2023-05-19T18:39:29.248Z,5.93
2023-05-19T18:41:55.950Z,6.00
2023-05-19T18:44:22.460Z,5.57
2023-05-19T18:46:49.004Z,5.90
2023-05-19T18:49:15.725Z,6.30
2023-05-19T18:51:42.514Z,5.60
2023-05-19T18:54:09.128Z,5.35
2023-05-19T18:56:35.703Z,6.15
2023-05-19T18:59:02.310Z,6.22
2023-05-19T19:01:28.973Z,6.25
2023-05-19T19:03:55.764Z,6.55
2023-05-19T19:06:23.255Z,6.15
2023-05-19T19:08:49.924Z,5.78
2023-05-19T19:11:16.513Z,6.25
2023-05-19T19:13:43.649Z,6.15
2023-05-19T19:16:10.192Z,6.60
2023-05-19T19:18:36.909Z,5.88
2023-05-19T19:21:05.428Z,6.30
2023-05-19T19:23:32.263Z,6.18
2023-05-19T19:25:58.795Z,6.35
2023-05-19T19:28:25.398Z,6.20
2023-05-19T19:30:51.948Z,6.65
2023-05-19T19:33:18.718Z,6.88
2023-05-19T19:35:46.890Z,6.78
2023-05-19T19:38:13.580Z,7.50
2023-05-19T19:40:40.106Z,7.40
2023-05-19T19:43:06.606Z,7.63
2023-05-19T19:45:34.722Z,7.68
2023-05-19T19:48:01.713Z,8.18
2023-05-19T19:50:28.370Z,8.00
2023-05-19T19:52:54.886Z,8.02
2023-05-19T19:55:21.610Z,7.78
2023-05-19T19:57:49.329Z,8.70
2023-05-19T20:00:16.578Z,8.57
2023-05-19T20:03:02.184Z,8.63
2023-05-19T20:05:29.705Z,8.63
2023-05-19T20:07:56.250Z,8.57
2023-05-19T20:10:22.835Z,8.45
2023-05-19T20:12:50.488Z,8.32
2023-05-19T20:15:17.136Z,8.23
2023-05-19T20:17:43.737Z,8.48
2023-05-19T20:20:12.144Z,8.13
2023-05-19T20:22:39.081Z,7.45
2023-05-19T20:25:06.074Z,7.82
2023-05-19T20:27:32.580Z,9.07
2023-05-19T20:29:59.130Z,8.32
2023-05-19T20:32:25.877Z,8.65
2023-05-19T20:34:52.483Z,8.48
2023-05-19T20:37:18.992Z,9.05
2023-05-19T20:39:45.589Z,8.10
2023-05-19T20:42:12.244Z,8.82
2023-05-19T20:44:38.821Z,8.40
2023-05-19T20:47:08.098Z,8.23
2023-05-19T20:49:34.892Z,8.50
2023-05-19T20:52:01.407Z,8.25
2023-05-19T20:54:27.913Z,8.68
2023-05-19T20:56:54.433Z,7.78
2023-05-19T20:59:21.016Z,7.70
2023-05-19T21:01:47.672Z,8.25
2023-05-19T21:04:14.270Z,8.50
2023-05-19T21:06:41.033Z,8.32
2023-05-19T21:09:07.617Z,9.00
2023-05-19T21:11:34.388Z,8.02
2023-05-19T21:14:03.881Z,8.48
2023-05-19T21:16:31.224Z,8.65
2023-05-19T21:18:57.878Z,8.73
2023-05-19T21:21:24.518Z,9.07
2023-05-19T21:23:51.059Z,8.98
2023-05-19T21:26:17.824Z,8.93
2023-05-19T21:28:44.361Z,9.32
2023-05-19T21:31:10.969Z,8.73
2023-05-19T21:33:37.578Z,9.13
2023-05-19T21:36:04.233Z,9.20
2023-05-19T21:38:30.868Z,8.95
2023-05-19T21:40:57.390Z,9.63
2023-05-19T21:43:23.936Z,9.82
2023-05-19T21:45:50.473Z,9.80
2023-05-19T21:48:17.066Z,9.93
2023-05-19T21:50:43.585Z,9.23
2023-05-19T21:53:10.096Z,9.48
2023-05-19T21:55:36.607Z,10.07
2023-05-19T21:58:03.157Z,10.85
2023-05-19T22:00:29.730Z,10.02
2023-05-19T22:02:56.394Z,9.68
2023-05-19T22:05:23.019Z,10.15
2023-05-19T22:07:49.604Z,10.40
2023-05-19T22:10:16.474Z,9.23
2023-05-19T22:12:43.007Z,9.40
2023-05-19T22:15:10.345Z,9.35
2023-05-19T22:17:37.031Z,10.30
2023-05-19T22:20:03.959Z,9.32
2023-05-19T22:22:30.471Z,10.32
2023-05-19T22:24:56.971Z,9.95
2023-05-19T22:27:23.459Z,10.07
2023-05-19T22:29:49.997Z,10.10
2023-05-19T22:32:18.283Z,10.73
2023-05-19T22:34:44.931Z,10.30
2023-05-19T22:37:11.602Z,10.65
2023-05-19T22:39:38.738Z,9.95
2023-05-19T22:42:05.597Z,9.85
2023-05-19T22:44:32.086Z,9.88
2023-05-19T22:46:58.621Z,10.43
2023-05-19T22:49:26.121Z,10.30
2023-05-19T22:51:52.723Z,10.73
2023-05-19T22:54:19.265Z,9.90
2023-05-19T22:56:48.397Z,9.38
2023-05-19T22:59:17.593Z,10.88
2023-05-19T23:01:46.421Z,8.60
2023-05-19T23:04:13.442Z,9.52
2023-05-19T23:06:40.001Z,9.57
2023-05-19T23:09:06.592Z,8.73
2023-05-19T23:11:33.165Z,8.65
2023-05-19T23:13:59.733Z,9.93
2023-05-19T23:16:26.343Z,9.65
2023-05-19T23:18:53.171Z,9.13
2023-05-19T23:21:19.706Z,9.02
2023-05-19T23:23:46.368Z,9.18
2023-05-19T23:26:15.518Z,8.63
2023-05-19T23:28:42.458Z,8.25
2023-05-19T23:31:09.165Z,8.50
2023-05-19T23:33:35.687Z,8.35
2023-05-19T23:36:09.038Z,9.25
2023-05-19T23:38:36.253Z,8.23
2023-05-19T23:41:02.937Z,8.95
2023-05-19T23:43:29.547Z,9.43
2023-05-19T23:45:56.134Z,8.88
2023-05-19T23:48:22.660Z,8.80
2023-05-19T23:50:49.184Z,8.60
2023-05-19T23:53:15.691Z,8.57
2023-05-19T23:55:42.283Z,9.30
2023-05-19T23:58:08.786Z,8.65
